createdAt,value
2022-08-08T00:03:33.514Z,20.80
2022-08-08T00:08:58.709Z,20.76
2022-08-08T00:14:48.710Z,20.70
2022-08-08T00:19:51.349Z,20.69
2022-08-08T00:25:01.635Z,20.68
2022-08-08T00:30:11.419Z,20.53
2022-08-08T00:35:29.262Z,20.57
2022-08-08T00:41:09.667Z,20.63
2022-08-08T00:46:21.938Z,20.63
2022-08-08T00:51:39.104Z,20.56
2022-08-08T00:57:29.703Z,20.41
2022-08-08T01:03:59.988Z,20.43
2022-08-08T01:08:52.187Z,20.31
2022-08-08T01:14:16.250Z,20.38
2022-08-08T01:20:01.465Z,20.24
2022-08-08T01:25:26.356Z,20.11
2022-08-08T01:30:59.880Z,20.06
2022-08-08T01:36:23.496Z,20.10
2022-08-08T01:41:34.333Z,20.08
2022-08-08T01:46:47.485Z,19.98
2022-08-08T01:52:43.415Z,19.90
2022-08-08T01:58:11.261Z,19.80
2022-08-08T02:03:54.630Z,19.71
2022-08-08T02:09:16.293Z,19.63
2022-08-08T02:14:55.999Z,19.47
2022-08-08T02:20:15.883Z,19.50
2022-08-08T02:25:47.459Z,19.38
2022-08-08T02:31:59.199Z,19.37
2022-08-08T02:37:02.367Z,19.32
2022-08-08T02:42:38.021Z,19.23
2022-08-08T02:48:25.855Z,19.33
2022-08-08T02:53:57.755Z,19.17
2022-08-08T02:59:57.174Z,19.14
2022-08-08T03:05:20.805Z,19.09
2022-08-08T03:10:44.362Z,19.00
2022-08-08T03:16:35.192Z,19.00
2022-08-08T03:21:54.793Z,19.04
2022-08-08T03:27:12.686Z,18.99
2022-08-08T03:32:34.137Z,18.90
2022-08-08T03:38:53.207Z,18.88
2022-08-08T03:42:58.613Z,18.75
2022-08-08T03:48:21.088Z,18.78
2022-08-08T03:53:47.410Z,18.80
2022-08-08T03:58:50.834Z,18.73
2022-08-08T04:03:58.723Z,18.74
2022-08-08T04:09:06.790Z,18.75
2022-08-08T04:14:34.566Z,18.78
2022-08-08T04:19:36.572Z,18.81
2022-08-08T04:24:38.315Z,18.68
2022-08-08T04:29:55.402Z,18.57
2022-08-08T04:35:02.846Z,18.69
2022-08-08T04:40:10.502Z,18.58
2022-08-08T04:45:14.501Z,18.58
2022-08-08T04:50:24.326Z,18.59
2022-08-08T04:55:47.552Z,18.57
2022-08-08T05:00:51.815Z,18.53
2022-08-08T05:05:53.942Z,18.62
2022-08-08T05:10:57.000Z,18.78
2022-08-08T05:16:48.341Z,18.68
2022-08-08T05:21:20.995Z,18.76
2022-08-08T05:26:27.409Z,18.71
2022-08-08T05:32:03.371Z,18.73
2022-08-08T05:36:53.810Z,18.93
2022-08-08T05:41:59.478Z,18.97
2022-08-08T05:47:03.259Z,18.94
2022-08-08T05:52:06.285Z,19.16
2022-08-08T05:57:16.235Z,19.38
2022-08-08T06:02:56.798Z,19.52
2022-08-08T06:08:02.706Z,19.58
2022-08-08T06:13:04.706Z,19.81
2022-08-08T06:18:21.098Z,19.96
2022-08-08T06:23:53.281Z,20.12
2022-08-08T06:29:02.396Z,20.32
2022-08-08T06:34:27.507Z,20.42
2022-08-08T06:39:34.095Z,20.53
2022-08-08T06:44:42.426Z,20.76
2022-08-08T06:49:55.097Z,21.06
2022-08-08T06:54:59.627Z,21.23
2022-08-08T07:00:09.989Z,21.47
2022-08-08T07:05:20.510Z,21.67
2022-08-08T07:10:33.125Z,21.91
2022-08-08T07:16:04.289Z,22.20
2022-08-08T07:21:09.917Z,22.29
2022-08-08T07:26:32.972Z,22.51
2022-08-08T07:31:37.183Z,22.84
2022-08-08T07:36:48.003Z,22.88
2022-08-08T07:42:04.182Z,23.07
2022-08-08T07:47:06.581Z,23.33
2022-08-08T07:52:13.049Z,23.64
2022-08-08T07:57:48.464Z,23.86
2022-08-08T08:03:07.130Z,23.92
2022-08-08T08:08:27.530Z,24.17
2022-08-08T08:13:42.826Z,24.49
2022-08-08T08:19:07.362Z,24.68
2022-08-08T08:24:09.576Z,24.80
2022-08-08T08:29:16.551Z,25.03
2022-08-08T08:34:21.237Z,25.31
2022-08-08T08:39:23.671Z,25.74
2022-08-08T08:44:28.975Z,25.81
2022-08-08T08:49:34.057Z,25.75
2022-08-08T08:54:36.251Z,25.72
2022-08-08T08:59:59.548Z,26.34
2022-08-08T09:05:04.126Z,26.13
2022-08-08T09:10:05.910Z,26.55
2022-08-08T09:15:08.133Z,27.06
2022-08-08T09:22:01.010Z,27.50
2022-08-08T09:25:36.292Z,27.84
2022-08-08T09:31:12.903Z,28.26
2022-08-08T09:36:22.487Z,28.57
2022-08-08T09:41:54.730Z,28.30
2022-08-08T09:48:02.323Z,29.04
2022-08-08T09:52:54.130Z,29.51
2022-08-08T09:58:08.344Z,28.86
2022-08-08T10:03:19.785Z,29.38
2022-08-08T10:08:22.514Z,29.90
2022-08-08T10:13:32.152Z,30.38
2022-08-08T10:18:37.030Z,30.58
2022-08-08T10:23:44.019Z,30.92
2022-08-08T10:29:00.313Z,31.28
2022-08-08T10:34:19.344Z,32.69
2022-08-08T10:39:31.401Z,34.37
2022-08-08T10:44:40.090Z,34.13
2022-08-08T10:50:01.250Z,33.88
2022-08-08T10:55:39.954Z,33.57
2022-08-08T11:00:48.292Z,33.15
2022-08-08T11:06:00.874Z,33.77
2022-08-08T11:11:08.233Z,34.52
2022-08-08T11:16:32.868Z,35.02
2022-08-08T11:21:40.983Z,35.27
2022-08-08T11:26:56.555Z,35.22
2022-08-08T11:32:00.588Z,35.06
2022-08-08T11:37:15.024Z,34.90
2022-08-08T11:42:18.194Z,35.45
2022-08-08T11:47:39.680Z,34.38
2022-08-08T11:52:52.230Z,33.81
2022-08-08T11:58:21.796Z,34.52
2022-08-08T12:03:30.500Z,34.69
2022-08-08T12:08:34.150Z,34.68
2022-08-08T12:14:03.063Z,34.68
2022-08-08T12:18:57.261Z,34.63
2022-08-08T12:24:07.522Z,34.30
2022-08-08T12:29:39.964Z,33.27
2022-08-08T12:34:50.228Z,33.53
2022-08-08T12:40:01.159Z,33.85
2022-08-08T12:45:53.615Z,33.81
2022-08-08T12:50:39.198Z,33.83
2022-08-08T12:56:06.501Z,33.60
2022-08-08T13:01:13.920Z,33.55
2022-08-08T13:06:20.159Z,33.57
2022-08-08T13:12:19.628Z,33.30
2022-08-08T13:16:54.975Z,33.02
2022-08-08T13:22:05.218Z,32.67
2022-08-08T13:27:12.284Z,32.51
2022-08-08T13:32:13.967Z,32.45
2022-08-08T13:37:19.536Z,32.31
2022-08-08T13:42:30.529Z,32.13
2022-08-08T13:47:32.359Z,32.18
2022-08-08T13:52:45.718Z,31.83
2022-08-08T13:58:07.785Z,31.67
2022-08-08T14:03:53.613Z,31.67
2022-08-08T14:08:34.712Z,31.25
2022-08-08T14:13:38.541Z,31.17
2022-08-08T14:19:03.058Z,31.12
2022-08-08T14:24:13.229Z,30.97
2022-08-08T14:29:28.103Z,30.82
2022-08-08T14:34:32.256Z,30.68
2022-08-08T14:39:47.829Z,30.62
2022-08-08T14:45:00.365Z,30.43
2022-08-08T14:50:16.119Z,30.25
2022-08-08T14:55:41.621Z,30.12
2022-08-08T15:00:44.833Z,30.00
2022-08-08T15:05:54.687Z,29.93
2022-08-08T15:11:00.651Z,29.88
2022-08-08T15:16:03.695Z,29.81
2022-08-08T15:21:07.119Z,29.71
2022-08-08T15:26:12.869Z,29.60
2022-08-08T15:31:25.997Z,29.55
2022-08-08T15:36:36.165Z,29.54
2022-08-08T15:41:43.545Z,29.50
2022-08-08T15:46:50.748Z,29.52
2022-08-08T15:51:54.649Z,29.54
2022-08-08T15:56:56.383Z,29.54
2022-08-08T16:02:00.543Z,29.53
2022-08-08T16:07:02.989Z,29.50
2022-08-08T16:13:20.624Z,29.50
2022-08-08T16:17:57.494Z,29.46
2022-08-08T16:22:50.207Z,29.34
2022-08-08T16:27:57.149Z,29.31
2022-08-08T16:32:59.542Z,29.25
2022-08-08T16:38:03.011Z,29.24
2022-08-08T16:43:05.600Z,29.20
2022-08-08T16:48:06.996Z,28.92
2022-08-08T16:55:23.558Z,28.88
2022-08-08T16:58:34.770Z,28.87
2022-08-08T17:04:01.340Z,28.80
2022-08-08T17:08:57.734Z,28.78
2022-08-08T17:14:01.652Z,28.69
2022-08-08T17:19:03.401Z,28.62
2022-08-08T17:24:21.946Z,28.56
2022-08-08T17:29:27.466Z,28.49
2022-08-08T17:34:49.303Z,28.44
2022-08-08T17:40:05.711Z,28.33
2022-08-08T17:45:14.278Z,28.24
2022-08-08T17:50:26.440Z,28.15
2022-08-08T17:56:07.780Z,28.02
2022-08-08T18:00:56.326Z,27.89
2022-08-08T18:06:00.294Z,27.80
2022-08-08T18:11:16.483Z,27.71
2022-08-08T18:16:23.269Z,27.60
2022-08-08T18:21:58.804Z,27.45
2022-08-08T18:26:56.750Z,27.30
2022-08-08T18:31:59.177Z,27.22
2022-08-08T18:37:05.051Z,27.09
2022-08-08T18:42:15.840Z,26.96
2022-08-08T18:47:18.260Z,26.83
2022-08-08T18:52:22.565Z,26.61
2022-08-08T18:57:24.352Z,26.40
2022-08-08T19:02:29.674Z,26.31
2022-08-08T19:07:33.517Z,26.19
2022-08-08T19:12:39.685Z,26.04
2022-08-08T19:18:31.274Z,25.96
2022-08-08T19:23:08.598Z,25.86
2022-08-08T19:28:19.501Z,25.76
2022-08-08T19:33:24.555Z,25.70
2022-08-08T19:38:27.123Z,25.58
2022-08-08T19:43:30.295Z,25.46
2022-08-08T19:48:33.116Z,25.44
2022-08-08T19:53:53.231Z,25.28
2022-08-08T19:58:55.665Z,25.25
2022-08-08T20:04:01.243Z,25.17
2022-08-08T20:09:08.734Z,25.12
2022-08-08T20:14:32.921Z,24.95
2022-08-08T20:19:34.246Z,24.86
2022-08-08T20:24:40.752Z,24.75
2022-08-08T20:29:45.361Z,24.68
2022-08-08T20:35:01.067Z,24.63
2022-08-08T20:40:05.471Z,24.56
2022-08-08T20:45:08.500Z,24.49
2022-08-08T20:50:10.814Z,24.40
2022-08-08T20:55:22.857Z,24.32
2022-08-08T21:00:27.645Z,24.24
2022-08-08T21:05:31.636Z,24.19
2022-08-08T21:10:33.343Z,24.10
2022-08-08T21:16:06.113Z,23.98
2022-08-08T21:20:57.771Z,24.00
2022-08-08T21:25:59.208Z,23.92
2022-08-08T21:31:00.593Z,23.80
2022-08-08T21:36:28.595Z,23.76
2022-08-08T21:41:43.182Z,23.63
2022-08-08T21:48:03.730Z,23.60
2022-08-08T21:54:36.376Z,23.52
2022-08-08T21:57:43.071Z,23.44
2022-08-08T22:02:57.540Z,23.41
2022-08-08T22:08:03.225Z,23.30
2022-08-08T22:13:18.396Z,23.24
2022-08-08T22:18:20.951Z,23.24
2022-08-08T22:23:25.470Z,23.13
2022-08-08T22:29:04.218Z,23.09
2022-08-08T22:34:13.698Z,23.04
2022-08-08T22:39:19.592Z,22.99
2022-08-08T22:44:21.911Z,22.96
2022-08-08T22:49:25.282Z,22.92
2022-08-08T22:54:34.393Z,22.85
2022-08-08T22:59:59.055Z,22.79
2022-08-08T23:05:04.789Z,22.66
2022-08-08T23:10:08.643Z,22.66
2022-08-08T23:16:39.772Z,22.64
2022-08-08T23:20:32.507Z,22.59
2022-08-08T23:25:37.288Z,22.54
2022-08-08T23:30:49.937Z,22.44
2022-08-08T23:35:58.866Z,22.45
2022-08-08T23:41:12.127Z,22.41
2022-08-08T23:49:05.194Z,22.40
2022-08-08T23:51:42.083Z,22.30
2022-08-08T23:57:01.582Z,22.34
